sensor_id;sensor_type;location;lat;lon;timestamp;pressure;altitude;pressure_sealevel;temperature;humidity
64827;BME280;51265;53.972;12.286;2023-02-21T00:01:58;100231.38;;;5.63;100.00
64827;BME280;51265;53.972;12.286;2023-02-21T00:04:43;100228.66;;;5.58;100.00
64827;BME280;51265;53.972;12.286;2023-02-21T00:07:28;100216.09;;;5.57;100.00
64827;BME280;51265;53.972;12.286;2023-02-21T00:10:14;100237.97;;;5.57;100.00
64827;BME280;51265;53.972;12.286;2023-02-21T00:12:59;100236.59;;;5.64;100.00
64827;BME280;51265;53.972;12.286;2023-02-21T00:15:44;100221.53;;;5.67;100.00
64827;BME280;51265;53.972;12.286;2023-02-21T00:18:34;100223.72;;;5.75;100.00
64827;BME280;51265;53.972;12.286;2023-02-21T00:21:19;100226.44;;;5.75;100.00
64827;BME280;51265;53.972;12.286;2023-02-21T00:24:04;100233.28;;;5.72;100.00
64827;BME280;51265;53.972;12.286;2023-02-21T00:26:49;100230.25;;;5.79;100.00
64827;BME280;51265;53.972;12.286;2023-02-21T00:29:34;100229.72;;;5.72;100.00
64827;BME280;51265;53.972;12.286;2023-02-21T00:32:20;100220.44;;;5.73;100.00
64827;BME280;51265;53.972;12.286;2023-02-21T00:35:05;100220.44;;;5.78;100.00
64827;BME280;51265;53.972;12.286;2023-02-21T00:37:50;100215.78;;;5.68;100.00
64827;BME280;51265;53.972;12.286;2023-02-21T00:40:35;100208.69;;;5.72;100.00
64827;BME280;51265;53.972;12.286;2023-02-21T00:43:30;100219.88;;;5.76;100.00
64827;BME280;51265;53.972;12.286;2023-02-21T00:46:15;100210.59;;;5.77;100.00
64827;BME280;51265;53.972;12.286;2023-02-21T00:49:01;100204.59;;;5.70;100.00
64827;BME280;51265;53.972;12.286;2023-02-21T00:51:47;100181.63;;;5.76;100.00
64827;BME280;51265;53.972;12.286;2023-02-21T00:54:32;100195.84;;;5.78;100.00
64827;BME280;51265;53.972;12.286;2023-02-21T00:57:18;100193.09;;;5.83;100.00
64827;BME280;51265;53.972;12.286;2023-02-21T01:00:05;100193.38;;;5.92;100.00
64827;BME280;51265;53.972;12.286;2023-02-21T01:02:50;100172.31;;;5.87;100.00
64827;BME280;51265;53.972;12.286;2023-02-21T01:05:35;100169.84;;;5.96;100.00
64827;BME280;51265;53.972;12.286;2023-02-21T01:08:19;100161.94;;;5.94;100.00
64827;BME280;51265;53.972;12.286;2023-02-21T01:11:04;100157.53;;;5.98;100.00
64827;BME280;51265;53.972;12.286;2023-02-21T01:13:49;100148.78;;;5.96;100.00
64827;BME280;51265;53.972;12.286;2023-02-21T01:16:34;100138.41;;;5.98;100.00
64827;BME280;51265;53.972;12.286;2023-02-21T01:19:19;100135.06;;;6.12;100.00
64827;BME280;51265;53.972;12.286;2023-02-21T01:22:04;100126.88;;;6.07;100.00
64827;BME280;51265;53.972;12.286;2023-02-21T01:24:50;100109.09;;;6.09;100.00
64827;BME280;51265;53.972;12.286;2023-02-21T01:27:36;100113.22;;;6.07;100.00
64827;BME280;51265;53.972;12.286;2023-02-21T01:30:20;100101.69;;;6.15;100.00
64827;BME280;51265;53.972;12.286;2023-02-21T01:33:05;100097.34;;;6.09;100.00
64827;BME280;51265;53.972;12.286;2023-02-21T01:35:50;100096.78;;;6.12;100.00
64827;BME280;51265;53.972;12.286;2023-02-21T01:38:35;100092.13;;;6.12;100.00
64827;BME280;51265;53.972;12.286;2023-02-21T01:41:20;100089.63;;;6.21;100.00
64827;BME280;51265;53.972;12.286;2023-02-21T01:44:33;100089.16;;;6.04;100.00
64827;BME280;51265;53.972;12.286;2023-02-21T01:47:19;100098.78;;;5.96;100.00
64827;BME280;51265;53.972;12.286;2023-02-21T01:50:10;100095.19;;;6.01;100.00
64827;BME280;51265;53.972;12.286;2023-02-21T01:52:56;100095.75;;;5.97;100.00
64827;BME280;51265;53.972;12.286;2023-02-21T01:55:42;100091.69;;;5.95;100.00
64827;BME280;51265;53.972;12.286;2023-02-21T01:58:29;100093.53;;;6.05;100.00
64827;BME280;51265;53.972;12.286;2023-02-21T02:01:24;100090.28;;;5.97;100.00
64827;BME280;51265;53.972;12.286;2023-02-21T02:04:11;100098.81;;;5.86;100.00
64827;BME280;51265;53.972;12.286;2023-02-21T02:06:56;100102.88;;;5.88;100.00
64827;BME280;51265;53.972;12.286;2023-02-21T02:09:41;100090.88;;;5.84;100.00
64827;BME280;51265;53.972;12.286;2023-02-21T02:17:56;100085.97;;;5.81;100.00
64827;BME280;51265;53.972;12.286;2023-02-21T02:28:58;100080.53;;;5.71;100.00
64827;BME280;51265;53.972;12.286;2023-02-21T02:39:59;100075.97;;;5.51;100.00
64827;BME280;51265;53.972;12.286;2023-02-21T02:42:46;100065.84;;;5.52;100.00
64827;BME280;51265;53.972;12.286;2023-02-21T02:45:42;100082.81;;;5.54;100.00
64827;BME280;51265;53.972;12.286;2023-02-21T02:48:21;100083.31;;;5.56;100.00
64827;BME280;51265;53.972;12.286;2023-02-21T02:50:49;100087.72;;;5.52;100.00
64827;BME280;51265;53.972;12.286;2023-02-21T02:53:25;100096.16;;;5.55;100.00
64827;BME280;51265;53.972;12.286;2023-02-21T02:55:57;100083.09;;;5.52;100.00
64827;BME280;51265;53.972;12.286;2023-02-21T02:58:30;100093.75;;;5.48;100.00
64827;BME280;51265;53.972;12.286;2023-02-21T03:07:01;100101.38;;;5.46;100.00
64827;BME280;51265;53.972;12.286;2023-02-21T03:09:43;100104.97;;;5.37;100.00
64827;BME280;51265;53.972;12.286;2023-02-21T03:12:20;100108.00;;;5.20;100.00
64827;BME280;51265;53.972;12.286;2023-02-21T03:14:59;100118.13;;;5.19;100.00
64827;BME280;51265;53.972;12.286;2023-02-21T03:17:27;100120.03;;;5.24;100.00
64827;BME280;51265;53.972;12.286;2023-02-21T03:19:56;100134.78;;;5.23;100.00
64827;BME280;51265;53.972;12.286;2023-02-21T03:22:26;100132.56;;;5.25;100.00
64827;BME280;51265;53.972;12.286;2023-02-21T03:24:58;100133.66;;;5.29;100.00
64827;BME280;51265;53.972;12.286;2023-02-21T03:27:27;100134.19;;;5.26;100.00
64827;BME280;51265;53.972;12.286;2023-02-21T03:30:01;100133.13;;;5.17;100.00
64827;BME280;51265;53.972;12.286;2023-02-21T03:32:41;100121.13;;;5.13;100.00
64827;BME280;51265;53.972;12.286;2023-02-21T03:35:11;100134.22;;;5.16;100.00
64827;BME280;51265;53.972;12.286;2023-02-21T03:37:41;100132.03;;;5.18;100.00
64827;BME280;51265;53.972;12.286;2023-02-21T03:40:12;100146.78;;;5.17;100.00
64827;BME280;51265;53.972;12.286;2023-02-21T03:42:39;100142.13;;;5.17;100.00
64827;BME280;51265;53.972;12.286;2023-02-21T03:45:06;100147.88;;;5.11;100.00
64827;BME280;51265;53.972;12.286;2023-02-21T03:47:33;100140.78;;;4.99;100.00
64827;BME280;51265;53.972;12.286;2023-02-21T03:49:59;100135.84;;;5.02;100.00
64827;BME280;51265;53.972;12.286;2023-02-21T03:52:25;100148.44;;;5.08;100.00
64827;BME280;51265;53.972;12.286;2023-02-21T03:54:52;100152.50;;;5.05;100.00
64827;BME280;51265;53.972;12.286;2023-02-21T03:57:20;100144.59;;;5.09;100.00
64827;BME280;51265;53.972;12.286;2023-02-21T03:59:49;100136.41;;;5.09;100.00
64827;BME280;51265;53.972;12.286;2023-02-21T04:02:15;100134.78;;;5.03;100.00
64827;BME280;51265;53.972;12.286;2023-02-21T04:04:42;100139.16;;;4.98;100.00
64827;BME280;51265;53.972;12.286;2023-02-21T04:07:13;100136.97;;;5.00;100.00
64827;BME280;51265;53.972;12.286;2023-02-21T04:09:40;100143.53;;;4.94;100.00
64827;BME280;51265;53.972;12.286;2023-02-21T04:12:08;100127.16;;;4.89;100.00
64827;BME280;51265;53.972;12.286;2023-02-21T04:14:36;100139.69;;;4.95;100.00
64827;BME280;51265;53.972;12.286;2023-02-21T04:17:03;100159.34;;;4.87;100.00
64827;BME280;51265;53.972;12.286;2023-02-21T04:19:30;100145.16;;;4.85;100.00
64827;BME280;51265;53.972;12.286;2023-02-21T04:21:56;100135.88;;;4.86;100.00
64827;BME280;51265;53.972;12.286;2023-02-21T04:24:22;100145.16;;;4.90;100.00
64827;BME280;51265;53.972;12.286;2023-02-21T04:26:49;100139.97;;;4.99;100.00
64827;BME280;51265;53.972;12.286;2023-02-21T04:29:16;100147.31;;;4.88;100.00
64827;BME280;51265;53.972;12.286;2023-02-21T04:31:43;100155.22;;;4.85;100.00
64827;BME280;51265;53.972;12.286;2023-02-21T04:34:14;100162.34;;;5.01;100.00
64827;BME280;51265;53.972;12.286;2023-02-21T04:36:43;100163.16;;;4.81;100.00
64827;BME280;51265;53.972;12.286;2023-02-21T04:39:09;100179.53;;;4.81;100.00
64827;BME280;51265;53.972;12.286;2023-02-21T04:41:36;100176.53;;;4.83;100.00
64827;BME280;51265;53.972;12.286;2023-02-21T04:44:03;100162.88;;;4.83;100.00
64827;BME280;51265;53.972;12.286;2023-02-21T04:46:32;100151.97;;;4.83;100.00
64827;BME280;51265;53.972;12.286;2023-02-21T04:48:59;100159.34;;;4.77;100.00
64827;BME280;51265;53.972;12.286;2023-02-21T04:51:25;100160.41;;;4.76;100.00
64827;BME280;51265;53.972;12.286;2023-02-21T04:53:53;100153.88;;;4.77;100.00
64827;BME280;51265;53.972;12.286;2023-02-21T04:56:21;100154.97;;;4.81;100.00
64827;BME280;51265;53.972;12.286;2023-02-21T04:58:48;100156.59;;;4.72;100.00
64827;BME280;51265;53.972;12.286;2023-02-21T05:01:16;100156.59;;;4.72;100.00
64827;BME280;51265;53.972;12.286;2023-02-21T05:03:42;100153.31;;;4.75;100.00
64827;BME280;51265;53.972;12.286;2023-02-21T05:06:08;100150.31;;;4.71;100.00
64827;BME280;51265;53.972;12.286;2023-02-21T05:08:35;100157.94;;;4.59;100.00
64827;BME280;51265;53.972;12.286;2023-02-21T05:11:02;100140.78;;;4.69;100.00
64827;BME280;51265;53.972;12.286;2023-02-21T05:13:28;100147.59;;;4.71;100.00
64827;BME280;51265;53.972;12.286;2023-02-21T05:15:54;100142.94;;;4.72;100.00
64827;BME280;51265;53.972;12.286;2023-02-21T05:18:20;100143.75;;;4.67;100.00
64827;BME280;51265;53.972;12.286;2023-02-21T05:20:53;100153.31;;;4.75;100.00
64827;BME280;51265;53.972;12.286;2023-02-21T05:23:20;100146.50;;;4.62;100.00
64827;BME280;51265;53.972;12.286;2023-02-21T05:26:04;100166.41;;;4.68;100.00
64827;BME280;51265;53.972;12.286;2023-02-21T05:28:30;100155.78;;;4.71;100.00
64827;BME280;51265;53.972;12.286;2023-02-21T05:30:57;100163.44;;;4.69;100.00
64827;BME280;51265;53.972;12.286;2023-02-21T05:33:24;100172.44;;;4.70;100.00
64827;BME280;51265;53.972;12.286;2023-02-21T05:35:50;100151.69;;;4.69;100.00
64827;BME280;51265;53.972;12.286;2023-02-21T05:38:19;100145.16;;;4.65;100.00
64827;BME280;51265;53.972;12.286;2023-02-21T05:40:45;100154.16;;;4.65;100.00
64827;BME280;51265;53.972;12.286;2023-02-21T05:43:11;100150.03;;;4.68;100.00
64827;BME280;51265;53.972;12.286;2023-02-21T05:45:38;100162.31;;;4.65;100.00
64827;BME280;51265;53.972;12.286;2023-02-21T05:48:04;100168.31;;;4.62;100.00
64827;BME280;51265;53.972;12.286;2023-02-21T05:50:30;100193.44;;;4.74;100.00
64827;BME280;51265;53.972;12.286;2023-02-21T05:52:58;100168.06;;;4.79;100.00
64827;BME280;51265;53.972;12.286;2023-02-21T05:55:24;100160.97;;;4.83;100.00
64827;BME280;51265;53.972;12.286;2023-02-21T05:57:51;100147.06;;;4.80;100.00
64827;BME280;51265;53.972;12.286;2023-02-21T06:00:19;100149.53;;;4.81;100.00
64827;BME280;51265;53.972;12.286;2023-02-21T06:02:46;100149.50;;;4.71;100.00
64827;BME280;51265;53.972;12.286;2023-02-21T06:05:12;100153.31;;;4.70;100.00
64827;BME280;51265;53.972;12.286;2023-02-21T06:07:38;100164.22;;;4.60;100.00
64827;BME280;51265;53.972;12.286;2023-02-21T06:10:05;100166.41;;;4.53;100.00
64827;BME280;51265;53.972;12.286;2023-02-21T06:12:31;100174.28;;;4.49;100.00
64827;BME280;51265;53.972;12.286;2023-02-21T06:14:57;100178.94;;;4.48;100.00
64827;BME280;51265;53.972;12.286;2023-02-21T06:17:24;100172.91;;;4.46;100.00
64827;BME280;51265;53.972;12.286;2023-02-21T06:19:50;100188.22;;;4.47;100.00
64827;BME280;51265;53.972;12.286;2023-02-21T06:22:16;100185.72;;;4.46;100.00
64827;BME280;51265;53.972;12.286;2023-02-21T06:24:42;100178.66;;;4.45;100.00
64827;BME280;51265;53.972;12.286;2023-02-21T06:27:08;100174.81;;;4.46;100.00
64827;BME280;51265;53.972;12.286;2023-02-21T06:29:35;100170.75;;;4.54;100.00
64827;BME280;51265;53.972;12.286;2023-02-21T06:32:01;100171.00;;;4.47;100.00
64827;BME280;51265;53.972;12.286;2023-02-21T06:34:27;100169.66;;;4.49;100.00
64827;BME280;51265;53.972;12.286;2023-02-21T06:36:54;100182.22;;;4.56;100.00
64827;BME280;51265;53.972;12.286;2023-02-21T06:39:21;100183.28;;;4.55;100.00
64827;BME280;51265;53.972;12.286;2023-02-21T06:41:50;100200.75;;;4.59;100.00
64827;BME280;51265;53.972;12.286;2023-02-21T06:44:18;100208.13;;;4.58;100.00
64827;BME280;51265;53.972;12.286;2023-02-21T06:46:44;100197.50;;;4.52;100.00
64827;BME280;51265;53.972;12.286;2023-02-21T06:49:11;100199.13;;;4.53;100.00
64827;BME280;51265;53.972;12.286;2023-02-21T06:51:39;100199.13;;;4.53;100.00
64827;BME280;51265;53.972;12.286;2023-02-21T06:54:06;100208.94;;;4.54;100.00
64827;BME280;51265;53.972;12.286;2023-02-21T06:56:33;100203.47;;;4.54;100.00
64827;BME280;51265;53.972;12.286;2023-02-21T06:58:59;100217.94;;;4.59;100.00
64827;BME280;51265;53.972;12.286;2023-02-21T07:01:27;100223.16;;;4.56;100.00
64827;BME280;51265;53.972;12.286;2023-02-21T07:03:55;100221.75;;;4.48;100.00
64827;BME280;51265;53.972;12.286;2023-02-21T07:06:22;100235.69;;;4.52;100.00
64827;BME280;51265;53.972;12.286;2023-02-21T07:08:48;100229.66;;;4.60;100.00
64827;BME280;51265;53.972;12.286;2023-02-21T07:11:15;100220.94;;;4.58;100.00
64827;BME280;51265;53.972;12.286;2023-02-21T07:13:51;100237.59;;;4.66;100.00
64827;BME280;51265;53.972;12.286;2023-02-21T07:16:19;100231.88;;;4.68;100.00
64827;BME280;51265;53.972;12.286;2023-02-21T07:18:46;100224.25;;;4.70;100.00
64827;BME280;51265;53.972;12.286;2023-02-21T07:21:13;100215.50;;;4.68;100.00
64827;BME280;51265;53.972;12.286;2023-02-21T07:23:42;100223.16;;;4.71;100.00
64827;BME280;51265;53.972;12.286;2023-02-21T07:26:08;100224.25;;;4.75;100.00
64827;BME280;51265;53.972;12.286;2023-02-21T07:28:35;100223.72;;;4.78;100.00
64827;BME280;51265;53.972;12.286;2023-02-21T07:31:01;100224.81;;;4.77;100.00
64827;BME280;51265;53.972;12.286;2023-02-21T07:33:27;100231.09;;;4.83;100.00
64827;BME280;51265;53.972;12.286;2023-02-21T07:35:54;100245.84;;;4.87;100.00
64827;BME280;51265;53.972;12.286;2023-02-21T07:40:46;100257.56;;;4.92;100.00
64827;BME280;51265;53.972;12.286;2023-02-21T07:43:13;100259.25;;;4.98;100.00
64827;BME280;51265;53.972;12.286;2023-02-21T07:45:39;100263.31;;;5.01;100.00
64827;BME280;51265;53.972;12.286;2023-02-21T07:48:16;100268.00;;;5.11;100.00
64827;BME280;51265;53.972;12.286;2023-02-21T07:50:43;100261.44;;;5.07;100.00
64827;BME280;51265;53.972;12.286;2023-02-21T07:53:10;100277.25;;;5.10;100.00
64827;BME280;51265;53.972;12.286;2023-02-21T07:55:37;100268.53;;;5.18;100.00
64827;BME280;51265;53.972;12.286;2023-02-21T07:58:03;100263.06;;;5.18;100.00
64827;BME280;51265;53.972;12.286;2023-02-21T08:00:30;100254.88;;;5.18;100.00
64827;BME280;51265;53.972;12.286;2023-02-21T08:02:57;100266.34;;;5.30;100.00
64827;BME280;51265;53.972;12.286;2023-02-21T08:05:23;100266.34;;;5.30;100.00
64827;BME280;51265;53.972;12.286;2023-02-21T08:07:50;100274.56;;;5.40;100.00
64827;BME280;51265;53.972;12.286;2023-02-21T08:10:24;100289.84;;;5.41;100.00
64827;BME280;51265;53.972;12.286;2023-02-21T08:12:51;100272.94;;;5.39;100.00
64827;BME280;51265;53.972;12.286;2023-02-21T08:15:17;100274.84;;;5.44;100.00
64827;BME280;51265;53.972;12.286;2023-02-21T08:17:47;100321.53;;;5.58;100.00
64827;BME280;51265;53.972;12.286;2023-02-21T08:20:13;100302.44;;;5.73;100.00
64827;BME280;51265;53.972;12.286;2023-02-21T08:22:40;100308.97;;;5.82;100.00
64827;BME280;51265;53.972;12.286;2023-02-21T08:25:06;100316.09;;;5.78;100.00
64827;BME280;51265;53.972;12.286;2023-02-21T08:27:34;100311.69;;;5.87;100.00
64827;BME280;51265;53.972;12.286;2023-02-21T08:30:00;100305.13;;;5.83;100.00
64827;BME280;51265;53.972;12.286;2023-02-21T08:32:26;100319.09;;;5.87;100.00
64827;BME280;51265;53.972;12.286;2023-02-21T08:34:52;100311.16;;;5.95;100.00
64827;BME280;51265;53.972;12.286;2023-02-21T08:37:18;100314.44;;;5.92;100.00
64827;BME280;51265;53.972;12.286;2023-02-21T08:39:46;100320.75;;;5.98;100.00
64827;BME280;51265;53.972;12.286;2023-02-21T08:42:13;100315.50;;;5.91;100.00
64827;BME280;51265;53.972;12.286;2023-02-21T08:44:43;100324.56;;;5.92;100.00
64827;BME280;51265;53.972;12.286;2023-02-21T08:47:10;100339.06;;;6.03;100.00
64827;BME280;51265;53.972;12.286;2023-02-21T08:49:37;100333.59;;;6.03;100.00
64827;BME280;51265;53.972;12.286;2023-02-21T08:52:06;100337.94;;;6.04;100.00
64827;BME280;51265;53.972;12.286;2023-02-21T08:54:32;100330.28;;;6.06;100.00
64827;BME280;51265;53.972;12.286;2023-02-21T08:56:59;100327.28;;;6.12;100.00
64827;BME280;51265;53.972;12.286;2023-02-21T08:59:25;100338.75;;;6.19;100.00
64827;BME280;51265;53.972;12.286;2023-02-21T09:01:53;100341.75;;;6.18;100.00
64827;BME280;51265;53.972;12.286;2023-02-21T09:04:19;100341.44;;;6.35;100.00
64827;BME280;51265;53.972;12.286;2023-02-21T09:06:45;100332.38;;;6.39;100.00
64827;BME280;51265;53.972;12.286;2023-02-21T09:09:12;100324.19;;;6.34;100.00
64827;BME280;51265;53.972;12.286;2023-02-21T09:11:38;100326.41;;;6.32;100.00
64827;BME280;51265;53.972;12.286;2023-02-21T09:14:04;100316.03;;;6.29;100.00
64827;BME280;51265;53.972;12.286;2023-02-21T09:16:31;100329.16;;;6.27;100.00
64827;BME280;51265;53.972;12.286;2023-02-21T09:18:59;100330.22;;;6.41;100.00
64827;BME280;51265;53.972;12.286;2023-02-21T09:21:27;100329.13;;;6.37;100.00
64827;BME280;51265;53.972;12.286;2023-02-21T09:23:55;100332.66;;;6.43;100.00
64827;BME280;51265;53.972;12.286;2023-02-21T09:26:21;100330.16;;;6.52;100.00
64827;BME280;51265;53.972;12.286;2023-02-21T09:28:52;100332.03;;;6.66;100.00
64827;BME280;51265;53.972;12.286;2023-02-21T09:31:19;100344.94;;;6.51;100.00
64827;BME280;51265;53.972;12.286;2023-02-21T09:33:45;100328.53;;;6.51;100.00
64827;BME280;51265;53.972;12.286;2023-02-21T09:36:11;100320.63;;;6.49;100.00
64827;BME280;51265;53.972;12.286;2023-02-21T09:38:37;100330.75;;;6.48;100.00
64827;BME280;51265;53.972;12.286;2023-02-21T09:41:10;100324.72;;;6.46;100.00
64827;BME280;51265;53.972;12.286;2023-02-21T09:43:40;100321.97;;;6.46;100.00
64827;BME280;51265;53.972;12.286;2023-02-21T09:46:13;100329.63;;;6.49;100.00
64827;BME280;51265;53.972;12.286;2023-02-21T09:48:41;100345.75;;;6.61;100.00
64827;BME280;51265;53.972;12.286;2023-02-21T09:51:10;100336.63;;;6.76;100.00
64827;BME280;51265;53.972;12.286;2023-02-21T09:53:38;100345.34;;;6.88;100.00
64827;BME280;51265;53.972;12.286;2023-02-21T09:56:12;100305.69;;;6.81;100.00
64827;BME280;51265;53.972;12.286;2023-02-21T09:58:41;100319.88;;;6.93;100.00
64827;BME280;51265;53.972;12.286;2023-02-21T10:01:23;100323.97;;;6.95;100.00
64827;BME280;51265;53.972;12.286;2023-02-21T10:06:54;100295.53;;;6.86;100.00
64827;BME280;51265;53.972;12.286;2023-02-21T10:09:29;100288.06;;;6.97;100.00
64827;BME280;51265;53.972;12.286;2023-02-21T10:17:31;100306.75;;;7.68;100.00
64827;BME280;51265;53.972;12.286;2023-02-21T10:20:05;100257.19;;;7.60;100.00
64827;BME280;51265;53.972;12.286;2023-02-21T10:22:38;100242.91;;;7.34;100.00
64827;BME280;51265;53.972;12.286;2023-02-21T10:25:35;100249.88;;;7.21;100.00
64827;BME280;51265;53.972;12.286;2023-02-21T10:28:04;100265.63;;;7.34;100.00
64827;BME280;51265;53.972;12.286;2023-02-21T10:30:35;100249.22;;;7.34;100.00
64827;BME280;51265;53.972;12.286;2023-02-21T10:33:03;100256.16;;;7.56;100.00
64827;BME280;51265;53.972;12.286;2023-02-21T10:35:33;100245.19;;;7.56;100.00
64827;BME280;51265;53.972;12.286;2023-02-21T10:38:00;100251.16;;;7.63;100.00
64827;BME280;51265;53.972;12.286;2023-02-21T10:40:39;100253.75;;;7.78;100.00
64827;BME280;51265;53.972;12.286;2023-02-21T10:43:27;100243.84;;;7.82;100.00
64827;BME280;51265;53.972;12.286;2023-02-21T10:48:54;100203.44;;;7.64;100.00
64827;BME280;51265;53.972;12.286;2023-02-21T10:51:30;100187.19;;;7.72;100.00
64827;BME280;51265;53.972;12.286;2023-02-21T10:54:24;100208.84;;;7.74;100.00
64827;BME280;51265;53.972;12.286;2023-02-21T10:56:51;100231.72;;;7.88;100.00
64827;BME280;51265;53.972;12.286;2023-02-21T10:59:22;100176.25;;;7.43;100.00
64827;BME280;51265;53.972;12.286;2023-02-21T11:01:51;100192.69;;;7.43;100.00
64827;BME280;51265;53.972;12.286;2023-02-21T11:06:50;100189.66;;;7.45;100.00
64827;BME280;51265;53.972;12.286;2023-02-21T11:09:24;100238.94;;;7.79;100.00
64827;BME280;51265;53.972;12.286;2023-02-21T11:12:03;100217.09;;;7.69;100.00
64827;BME280;51265;53.972;12.286;2023-02-21T11:14:31;100224.31;;;7.60;100.00
64827;BME280;51265;53.972;12.286;2023-02-21T11:17:11;100193.72;;;7.53;100.00
64827;BME280;51265;53.972;12.286;2023-02-21T11:19:54;100181.72;;;7.43;100.00
64827;BME280;51265;53.972;12.286;2023-02-21T11:22:23;100188.75;;;7.55;100.00
64827;BME280;51265;53.972;12.286;2023-02-21T11:24:55;100204.03;;;7.61;100.00
64827;BME280;51265;53.972;12.286;2023-02-21T11:27:23;100183.47;;;7.34;100.00
64827;BME280;51265;53.972;12.286;2023-02-21T11:29:51;100183.56;;;7.24;100.00
64827;BME280;51265;53.972;12.286;2023-02-21T11:32:23;100238.75;;;7.41;100.00
64827;BME280;51265;53.972;12.286;2023-02-21T11:34:59;100206.53;;;7.28;100.00
64827;BME280;51265;53.972;12.286;2023-02-21T11:37:27;100184.19;;;7.16;100.00
64827;BME280;51265;53.972;12.286;2023-02-21T11:39:54;100202.13;;;7.32;100.00
64827;BME280;51265;53.972;12.286;2023-02-21T11:45:16;100169.88;;;7.19;100.00
64827;BME280;51265;53.972;12.286;2023-02-21T11:47:58;100175.34;;;7.24;100.00
64827;BME280;51265;53.972;12.286;2023-02-21T11:50:34;100144.16;;;7.20;100.00
64827;BME280;51265;53.972;12.286;2023-02-21T11:53:29;100199.84;;;7.68;100.00
64827;BME280;51265;53.972;12.286;2023-02-21T11:56:13;100201.63;;;7.83;100.00
64827;BME280;51265;53.972;12.286;2023-02-21T11:58:50;100203.75;;;8.10;100.00
64827;BME280;51265;53.972;12.286;2023-02-21T12:01:27;100131.84;;;7.94;100.00
64827;BME280;51265;53.972;12.286;2023-02-21T12:04:14;100129.28;;;7.79;100.00
64827;BME280;51265;53.972;12.286;2023-02-21T12:06:59;100146.66;;;7.93;100.00
64827;BME280;51265;53.972;12.286;2023-02-21T12:09:47;100092.75;;;7.60;100.00
64827;BME280;51265;53.972;12.286;2023-02-21T12:21:19;100102.25;;;7.91;100.00
64827;BME280;51265;53.972;12.286;2023-02-21T12:32:42;100053.19;;;7.90;98.17
64827;BME280;51265;53.972;12.286;2023-02-21T12:34:55;100068.69;;;8.18;97.53
64827;BME280;51265;53.972;12.286;2023-02-21T12:40:18;100070.13;;;8.16;97.29
64827;BME280;51265;53.972;12.286;2023-02-21T12:43:09;100041.06;;;7.96;96.73
64827;BME280;51265;53.972;12.286;2023-02-21T12:46:10;100041.63;;;7.74;96.78
64827;BME280;51265;53.972;12.286;2023-02-21T12:51:20;100041.00;;;7.58;98.29
64827;BME280;51265;53.972;12.286;2023-02-21T12:53:54;100046.34;;;7.68;98.34
64827;BME280;51265;53.972;12.286;2023-02-21T12:56:52;100060.34;;;7.67;97.45
64827;BME280;51265;53.972;12.286;2023-02-21T12:59:43;100004.94;;;7.70;96.70
64827;BME280;51265;53.972;12.286;2023-02-21T13:02:20;100004.94;;;7.70;94.93
64827;BME280;51265;53.972;12.286;2023-02-21T13:04:56;99969.59;;;7.68;93.44
64827;BME280;51265;53.972;12.286;2023-02-21T13:07:31;99954.69;;;7.56;92.45
64827;BME280;51265;53.972;12.286;2023-02-21T13:10:03;99977.00;;;7.68;93.42
64827;BME280;51265;53.972;12.286;2023-02-21T13:17:40;99998.03;;;7.72;93.96
64827;BME280;51265;53.972;12.286;2023-02-21T13:20:12;100009.50;;;7.56;95.07
64827;BME280;51265;53.972;12.286;2023-02-21T13:26:28;100021.97;;;7.24;97.05
64827;BME280;51265;53.972;12.286;2023-02-21T13:28:57;100025.75;;;7.28;97.28
64827;BME280;51265;53.972;12.286;2023-02-21T13:31:33;100029.72;;;7.41;96.91
64827;BME280;51265;53.972;12.286;2023-02-21T13:34:07;100018.03;;;7.30;97.27
64827;BME280;51265;53.972;12.286;2023-02-21T13:41:38;100072.47;;;7.13;100.00
64827;BME280;51265;53.972;12.286;2023-02-21T13:44:08;100106.94;;;7.14;100.00
64827;BME280;51265;53.972;12.286;2023-02-21T14:08:29;100186.00;;;7.55;100.00
64827;BME280;51265;53.972;12.286;2023-02-21T14:13:36;100110.47;;;7.43;100.00
64827;BME280;51265;53.972;12.286;2023-02-21T14:21:28;100102.88;;;7.11;100.00
64827;BME280;51265;53.972;12.286;2023-02-21T14:23:59;100100.97;;;7.12;100.00
64827;BME280;51265;53.972;12.286;2023-02-21T14:26:39;100084.66;;;6.96;100.00
64827;BME280;51265;53.972;12.286;2023-02-21T14:34:41;100117.94;;;6.80;100.00
64827;BME280;51265;53.972;12.286;2023-02-21T14:39:50;100140.56;;;6.90;100.00
64827;BME280;51265;53.972;12.286;2023-02-21T14:51:09;100152.31;;;7.25;100.00
64827;BME280;51265;53.972;12.286;2023-02-21T14:53:57;100131.66;;;7.09;100.00
64827;BME280;51265;53.972;12.286;2023-02-21T14:59:31;100131.16;;;7.02;100.00
64827;BME280;51265;53.972;12.286;2023-02-21T15:10:51;100136.97;;;6.61;100.00
64827;BME280;51265;53.972;12.286;2023-02-21T15:13:30;100140.25;;;6.58;100.00
64827;BME280;51265;53.972;12.286;2023-02-21T15:16:05;100147.41;;;6.54;100.00
64827;BME280;51265;53.972;12.286;2023-02-21T15:18:36;100163.50;;;6.60;100.00
64827;BME280;51265;53.972;12.286;2023-02-21T15:23:38;100164.81;;;6.73;100.00
64827;BME280;51265;53.972;12.286;2023-02-21T15:26:34;100175.41;;;6.80;100.00
64827;BME280;51265;53.972;12.286;2023-02-21T15:29:08;100165.88;;;6.72;100.00
64827;BME280;51265;53.972;12.286;2023-02-21T15:31:40;100172.38;;;6.81;100.00
64827;BME280;51265;53.972;12.286;2023-02-21T15:34:16;100173.22;;;6.77;100.00
64827;BME280;51265;53.972;12.286;2023-02-21T15:36:50;100167.53;;;6.73;100.00